Time;durP1;ratioP1;P1;durP2;ratioP2;P2;SDS_P1;SDS_P2;PMS_P1;PMS_P2;Temp;Humidity;BMP_temperature;BMP_pressure;BME280_temperature;BME280_humidity;BME280_pressure;Samples;Min_cycle;Max_cycle;Signal;HPM_P1;HPM_P2
2022/05/08 00:01:38;;;;;;;8.53;6.10;;;14.50;70.20;;;;;;5081398;28;20474;-79
2022/05/08 00:04:07;;;;;;;8.20;5.03;;;14.50;70.20;;;;;;5067149;28;20962;-79
2022/05/08 00:06:34;;;;;;;8.60;5.37;;;14.50;70.10;;;;;;5059851;28;20506;-81
2022/05/08 00:09:04;;;;;;;8.67;5.53;;;14.50;70.20;;;;;;5066027;28;20500;-80
2022/05/08 00:11:32;;;;;;;8.03;4.70;;;14.50;70.30;;;;;;5066649;28;21108;-80
2022/05/08 00:14:00;;;;;;;6.70;4.57;;;14.50;70.20;;;;;;5067485;28;20450;-80
2022/05/08 00:16:28;;;;;;;7.67;4.60;;;14.50;70.10;;;;;;5083179;28;20478;-81
2022/05/08 00:18:56;;;;;;;9.23;4.60;;;14.40;70.00;;;;;;5066312;28;20545;-81
2022/05/08 00:21:24;;;;;;;7.90;4.87;;;14.30;70.00;;;;;;5067476;28;20474;-81
2022/05/08 00:24:00;;;;;;;7.90;5.07;;;14.30;70.00;;;;;;5067007;28;20461;-80
2022/05/08 00:26:31;;;;;;;8.97;5.27;;;14.30;70.10;;;;;;5066493;28;20457;-81
2022/05/08 00:28:59;;;;;;;8.57;4.60;;;14.20;70.20;;;;;;5057082;28;20468;-81
2022/05/08 00:31:26;;;;;;;8.13;5.40;;;14.20;70.20;;;;;;5065629;28;20478;-80
2022/05/08 00:33:55;;;;;;;6.80;4.33;;;14.20;70.10;;;;;;5066607;28;20457;-81
2022/05/08 00:36:22;;;;;;;7.20;4.23;;;14.20;70.10;;;;;;5067532;28;20474;-80
2022/05/08 00:38:50;;;;;;;7.10;4.80;;;14.10;70.10;;;;;;5067050;28;20457;-82
2022/05/08 00:41:18;;;;;;;7.40;4.20;;;14.10;70.10;;;;;;5065504;28;21044;-81
2022/05/08 00:43:48;;;;;;;8.53;5.00;;;14.10;70.10;;;;;;5065947;28;20456;-81
2022/05/08 00:46:16;;;;;;;7.63;5.40;;;14.00;70.10;;;;;;5064771;28;20562;-79
2022/05/08 00:48:48;;;;;;;7.10;4.83;;;14.00;70.20;;;;;;5058079;28;20488;-80
2022/05/08 00:51:18;;;;;;;7.07;5.03;;;14.00;70.30;;;;;;5081214;28;21042;-80
2022/05/08 00:53:50;;;;;;;5.90;3.90;;;14.00;70.30;;;;;;5067990;28;20457;-79
2022/05/08 00:56:19;;;;;;;7.63;4.90;;;14.00;70.30;;;;;;5064815;28;20489;-79
2022/05/08 00:58:52;;;;;;;7.13;4.50;;;13.90;70.20;;;;;;5065614;28;20480;-79
2022/05/08 01:01:20;;;;;;;6.80;4.30;;;13.90;70.30;;;;;;5066243;28;20524;-78
2022/05/08 01:03:49;;;;;;;8.00;5.10;;;13.80;70.40;;;;;;5066710;28;20824;-80
2022/05/08 01:06:18;;;;;;;7.07;4.80;;;13.80;70.40;;;;;;5067295;28;20474;-79
2022/05/08 01:08:50;;;;;;;7.33;4.60;;;13.70;70.30;;;;;;5061455;28;20467;-79
2022/05/08 01:11:19;;;;;;;7.10;4.47;;;13.70;70.40;;;;;;5065965;28;20481;-80
2022/05/08 01:13:49;;;;;;;6.83;4.20;;;13.70;70.50;;;;;;5073616;28;20531;-80
2022/05/08 01:16:19;;;;;;;6.90;4.50;;;13.60;70.40;;;;;;5070174;28;20489;-78
2022/05/08 01:18:49;;;;;;;7.00;4.83;;;13.60;70.40;;;;;;5070775;28;20472;-80
2022/05/08 01:21:18;;;;;;;7.83;5.00;;;13.60;70.50;;;;;;5067260;28;20480;-80
2022/05/08 01:23:48;;;;;;;7.40;5.00;;;13.50;70.50;;;;;;5061394;28;20450;-78
2022/05/08 01:26:21;;;;;;;9.33;5.00;;;13.50;70.50;;;;;;5066968;28;20457;-79
2022/05/08 01:28:49;;;;;;;8.10;4.47;;;13.50;70.40;;;;;;5066339;28;20451;-81
2022/05/08 01:31:18;;;;;;;6.97;4.67;;;13.50;70.50;;;;;;5065479;28;20958;-79
2022/05/08 01:33:46;;;;;;;9.50;4.50;;;13.50;70.50;;;;;;5080505;28;20456;-79
2022/05/08 01:36:14;;;;;;;6.20;4.13;;;13.40;70.40;;;;;;5069917;28;20748;-78
2022/05/08 01:38:42;;;;;;;7.57;4.80;;;13.30;70.30;;;;;;5067544;28;20469;-80
2022/05/08 01:41:11;;;;;;;11.27;4.90;;;13.30;70.70;;;;;;5065216;28;20486;-80
2022/05/08 01:43:41;;;;;;;9.27;5.00;;;13.20;70.70;;;;;;5070446;28;20537;-79
2022/05/08 01:46:10;;;;;;;9.50;5.33;;;13.20;70.80;;;;;;5066359;28;20860;-78
2022/05/08 01:48:38;;;;;;;8.10;4.97;;;13.30;71.00;;;;;;5067751;28;20507;-79
2022/05/08 01:51:06;;;;;;;8.70;4.40;;;13.30;71.10;;;;;;5068124;28;20469;-79
2022/05/08 01:53:35;;;;;;;6.70;4.27;;;13.30;71.10;;;;;;5067526;28;20457;-79
2022/05/08 01:56:07;;;;;;;8.43;4.87;;;13.30;71.00;;;;;;5063332;28;20990;-79
2022/05/08 01:58:36;;;;;;;5.87;3.90;;;13.40;71.00;;;;;;5065273;28;20950;-79
2022/05/08 02:01:05;;;;;;;8.13;4.80;;;13.40;70.90;;;;;;5065803;28;20477;-79
2022/05/08 02:03:34;;;;;;;6.87;4.43;;;13.30;70.80;;;;;;5063784;28;20818;-78
2022/05/08 02:06:02;;;;;;;7.13;4.97;;;13.30;70.70;;;;;;5065012;28;20454;-78
2022/05/08 02:08:30;;;;;;;6.03;4.33;;;13.20;70.70;;;;;;5074759;28;20761;-79
2022/05/08 02:10:58;;;;;;;7.83;4.43;;;13.20;70.70;;;;;;5064178;28;21346;-78
2022/05/08 02:13:26;;;;;;;8.53;4.53;;;13.10;70.70;;;;;;5068161;28;20461;-78
2022/05/08 02:15:55;;;;;;;8.70;4.50;;;13.10;70.80;;;;;;5065530;28;20463;-79
2022/05/08 02:18:23;;;;;;;7.77;4.83;;;13.00;70.90;;;;;;5067082;28;20993;-78
2022/05/08 02:20:53;;;;;;;9.03;4.60;;;13.00;70.80;;;;;;5066997;28;20528;-80
2022/05/08 02:23:21;;;;;;;8.10;5.00;;;13.00;70.80;;;;;;5067947;28;20454;-81
2022/05/08 02:25:49;;;;;;;6.53;4.43;;;12.90;70.70;;;;;;5068404;28;20473;-78
2022/05/08 02:28:17;;;;;;;9.13;4.87;;;12.80;70.70;;;;;;5068035;28;20537;-80
2022/05/08 02:30:45;;;;;;;12.93;4.70;;;12.80;71.00;;;;;;5069322;28;20481;-78
2022/05/08 02:33:14;;;;;;;6.30;4.60;;;12.80;71.00;;;;;;5068825;28;20573;-78
2022/05/08 02:35:42;;;;;;;12.53;7.70;;;12.80;71.00;;;;;;5069867;28;20496;-79
2022/05/08 02:38:10;;;;;;;6.83;4.40;;;12.90;71.10;;;;;;5062896;28;20999;-79
2022/05/08 02:40:38;;;;;;;7.50;4.83;;;12.90;71.00;;;;;;5066309;28;20490;-78
2022/05/08 02:43:06;;;;;;;8.03;4.47;;;12.90;71.00;;;;;;5068851;28;20458;-80
2022/05/08 02:45:34;;;;;;;7.67;4.73;;;12.90;70.80;;;;;;5067045;28;20471;-78
2022/05/08 02:48:02;;;;;;;9.23;4.50;;;12.80;70.80;;;;;;5062507;28;20478;-78
2022/05/08 02:50:32;;;;;;;8.10;5.13;;;12.70;70.90;;;;;;5065905;28;20493;-80
2022/05/08 02:53:00;;;;;;;6.50;4.30;;;12.60;71.00;;;;;;5069000;28;20477;-79
2022/05/08 03:01:00;;;;;;;9.00;4.87;;;12.70;71.30;;;;;;5070680;28;20474;-81
2022/05/08 03:03:28;;;;;;;6.90;4.33;;;12.70;71.30;;;;;;5073572;28;20451;-79
2022/05/08 03:05:57;;;;;;;6.60;3.90;;;12.70;71.30;;;;;;5068335;28;20458;-79
2022/05/08 03:08:25;;;;;;;6.90;4.70;;;12.70;71.20;;;;;;5069120;28;20458;-79
2022/05/08 03:13:40;;;;;;;7.23;4.80;;;12.70;71.00;;;;;;5068572;28;20470;-79
2022/05/08 03:16:09;;;;;;;6.77;4.23;;;12.60;71.10;;;;;;5058999;28;20489;-80
2022/05/08 03:18:40;;;;;;;7.37;4.60;;;12.50;71.10;;;;;;5064752;28;20541;-79
2022/05/08 03:21:10;;;;;;;6.80;4.57;;;12.50;71.20;;;;;;5057885;28;20488;-78
2022/05/08 03:23:39;;;;;;;8.60;4.90;;;12.50;71.40;;;;;;5080648;28;21008;-80
2022/05/08 03:26:07;;;;;;;7.70;4.70;;;12.50;71.50;;;;;;5066698;28;20489;-81
2022/05/08 03:28:38;;;;;;;7.63;4.67;;;12.50;71.50;;;;;;5062202;28;20572;-80
2022/05/08 03:31:06;;;;;;;7.23;4.60;;;12.60;71.60;;;;;;5062424;28;20912;-77
2022/05/08 03:33:36;;;;;;;8.80;4.57;;;12.60;71.60;;;;;;5080780;28;20462;-79
2022/05/08 03:36:10;;;;;;;6.87;3.97;;;12.60;71.40;;;;;;5066662;28;20465;-80
2022/05/08 03:38:44;;;;;;;7.90;4.77;;;12.60;71.30;;;;;;5079410;28;20491;-77
2022/05/08 03:41:15;;;;;;;8.43;4.47;;;12.50;71.20;;;;;;5064142;28;20497;-80
2022/05/08 03:43:44;;;;;;;6.00;4.07;;;12.50;71.30;;;;;;5078729;28;20454;-81
2022/05/08 03:46:13;;;;;;;10.30;5.40;;;12.40;71.30;;;;;;5066200;28;20989;-80
2022/05/08 03:48:41;;;;;;;6.63;4.30;;;12.40;71.40;;;;;;5067071;28;20450;-80
2022/05/08 03:51:09;;;;;;;7.63;4.30;;;12.40;71.50;;;;;;5053948;28;20482;-81
2022/05/08 03:53:37;;;;;;;6.77;4.73;;;12.40;71.60;;;;;;5065551;28;20992;-78
2022/05/08 03:56:09;;;;;;;7.20;3.97;;;12.40;71.50;;;;;;5067705;28;20528;-79
2022/05/08 03:58:40;;;;;;;12.40;4.50;;;12.40;71.50;;;;;;5066803;28;20470;-80
2022/05/08 04:01:08;;;;;;;6.83;4.60;;;12.40;71.50;;;;;;5062506;28;20492;-79
2022/05/08 04:03:36;;;;;;;6.93;4.50;;;12.40;71.50;;;;;;5062982;28;20458;-79
2022/05/08 04:06:05;;;;;;;6.33;4.47;;;12.40;71.40;;;;;;5065363;28;20473;-80
2022/05/08 04:08:33;;;;;;;6.30;4.20;;;12.30;71.40;;;;;;5061446;28;20451;-80
2022/05/08 04:11:01;;;;;;;5.70;3.93;;;12.30;71.40;;;;;;5064780;28;20489;-77
2022/05/08 04:13:31;;;;;;;9.00;4.57;;;12.30;71.60;;;;;;5065554;28;20463;-78
2022/05/08 04:16:16;;;;;;;6.13;4.00;;;12.30;71.70;;;;;;5064899;28;21157;-80
2022/05/08 04:18:45;;;;;;;6.30;3.90;;;12.30;71.60;;;;;;5064134;28;20477;-80
2022/05/08 04:21:13;;;;;;;8.93;4.50;;;12.30;71.50;;;;;;5066422;28;20474;-80
2022/05/08 04:26:28;;;;;;;6.90;4.50;;;12.30;71.60;;;;;;5059588;28;20494;-79
2022/05/08 04:28:59;;;;;;;7.03;4.40;;;12.30;71.70;;;;;;5068417;28;20549;-78
2022/05/08 04:31:28;;;;;;;7.03;4.40;;;12.30;71.70;;;;;;5069538;28;20493;-79
2022/05/08 04:33:56;;;;;;;8.30;4.77;;;12.30;71.80;;;;;;5063568;28;20482;-79
2022/05/08 04:36:24;;;;;;;8.27;4.90;;;12.30;71.80;;;;;;5083126;28;20461;-78
2022/05/08 04:38:52;;;;;;;7.63;4.90;;;12.30;71.80;;;;;;5072122;28;20485;-78
2022/05/08 04:41:20;;;;;;;7.80;4.97;;;12.40;71.80;;;;;;5067435;28;21113;-80
2022/05/08 04:43:49;;;;;;;6.30;3.70;;;12.40;71.90;;;;;;5068570;28;20577;-78
2022/05/08 04:46:19;;;;;;;8.50;4.30;;;12.50;72.10;;;;;;5070245;28;20466;-78
2022/05/08 04:48:47;;;;;;;7.57;4.57;;;12.60;72.20;;;;;;5083103;28;20459;-79
2022/05/08 04:51:15;;;;;;;8.20;4.70;;;12.70;72.40;;;;;;5070262;28;20474;-80
2022/05/08 04:53:43;;;;;;;6.63;4.33;;;12.90;72.50;;;;;;5068247;28;20459;-79
2022/05/08 04:56:12;;;;;;;9.03;4.63;;;13.00;72.50;;;;;;5067341;28;21044;-78
2022/05/08 04:58:41;;;;;;;6.87;4.10;;;13.20;72.40;;;;;;5066277;28;20505;-79
2022/05/08 05:01:09;;;;;;;6.47;4.10;;;13.40;72.40;;;;;;5082283;28;20501;-79
2022/05/08 05:03:39;;;;;;;7.37;5.00;;;13.50;72.40;;;;;;5068058;28;20454;-78
2022/05/08 05:06:06;;;;;;;7.17;4.30;;;13.60;72.30;;;;;;5070645;28;20955;-79
2022/05/08 05:08:35;;;;;;;10.33;4.90;;;13.70;72.70;;;;;;5073285;28;20464;-79
2022/05/08 05:11:06;;;;;;;6.70;4.40;;;13.90;73.60;;;;;;5069598;28;20482;-78
2022/05/08 05:13:34;;;;;;;5.97;3.93;;;14.40;74.30;;;;;;5068761;28;20458;-79
2022/05/08 05:16:02;;;;;;;7.03;3.80;;;15.20;73.70;;;;;;5071349;28;20477;-80
2022/05/08 05:18:32;;;;;;;5.97;4.07;;;16.10;72.20;;;;;;5071463;28;20474;-81
2022/05/08 05:21:01;;;;;;;6.50;3.73;;;17.00;70.50;;;;;;5070937;28;20836;-78
2022/05/08 05:23:29;;;;;;;7.13;3.70;;;17.80;68.90;;;;;;5082853;28;20460;-81
2022/05/08 05:25:58;;;;;;;5.13;3.10;;;18.60;67.80;;;;;;5057889;28;20457;-82
2022/05/08 05:28:25;;;;;;;5.80;3.90;;;19.30;66.70;;;;;;5066070;28;21080;-80
2022/05/08 05:30:53;;;;;;;6.30;4.23;;;19.90;65.80;;;;;;5065954;28;21114;-81
2022/05/08 05:33:22;;;;;;;5.90;3.67;;;20.50;65.00;;;;;;5066947;28;20474;-81
2022/05/08 05:35:50;;;;;;;6.60;4.20;;;21.10;64.20;;;;;;5063407;28;20466;-81
2022/05/08 05:38:19;;;;;;;6.17;3.87;;;21.60;63.70;;;;;;5066118;28;20446;-80
2022/05/08 05:40:48;;;;;;;6.47;4.00;;;22.20;63.00;;;;;;5067351;28;20569;-80
2022/05/08 05:43:16;;;;;;;7.30;4.10;;;22.80;62.40;;;;;;5064840;28;20462;-79
2022/05/08 05:45:44;;;;;;;6.83;4.80;;;23.30;61.70;;;;;;5063713;28;20466;-79
2022/05/08 05:48:11;;;;;;;7.97;4.67;;;23.90;60.90;;;;;;5064308;28;20479;-81
2022/05/08 05:50:41;;;;;;;9.00;5.20;;;24.40;60.10;;;;;;5064640;28;20478;-79
2022/05/08 05:53:09;;;;;;;7.90;4.13;;;25.00;59.30;;;;;;5071476;28;20462;-78
2022/05/08 05:55:38;;;;;;;7.50;4.50;;;25.60;58.40;;;;;;5070714;28;20464;-79
2022/05/08 05:58:09;;;;;;;7.90;4.87;;;26.10;57.40;;;;;;5068502;28;20454;-80
2022/05/08 06:00:37;;;;;;;6.53;4.40;;;26.60;56.60;;;;;;5072597;28;20882;-79
2022/05/08 06:03:12;;;;;;;8.10;4.27;;;27.00;55.70;;;;;;5068478;28;20503;-80
2022/05/08 06:05:41;;;;;;;7.37;4.50;;;27.30;54.50;;;;;;5069805;28;20463;-79
2022/05/08 06:08:16;;;;;;;8.10;4.83;;;26.60;52.70;;;;;;5076024;28;20469;-79
2022/05/08 06:10:46;;;;;;;8.10;5.07;;;25.20;52.50;;;;;;5072489;28;20483;-79
2022/05/08 06:13:14;;;;;;;6.40;4.20;;;23.60;53.50;;;;;;5073110;28;21186;-78
2022/05/08 06:15:42;;;;;;;7.40;4.77;;;22.10;54.50;;;;;;5069908;28;21303;-80
2022/05/08 06:18:10;;;;;;;7.73;4.83;;;20.90;55.70;;;;;;5069686;28;20970;-80
2022/05/08 06:20:38;;;;;;;9.10;5.20;;;20.00;56.70;;;;;;5079779;28;20919;-77
2022/05/08 06:23:07;;;;;;;8.63;5.03;;;19.30;57.90;;;;;;5079176;28;20645;-77
2022/05/08 06:25:35;;;;;;;8.03;5.10;;;18.60;58.80;;;;;;5067846;28;20462;-78
2022/05/08 06:28:04;;;;;;;7.73;5.90;;;18.20;59.70;;;;;;5081080;28;20465;-79
2022/05/08 06:30:33;;;;;;;9.00;5.70;;;17.90;60.60;;;;;;5071767;28;20473;-75
2022/05/08 06:33:01;;;;;;;8.40;5.37;;;17.60;61.30;;;;;;5071470;28;20569;-79
2022/05/08 06:35:39;;;;;;;9.73;6.10;;;17.40;61.90;;;;;;5072700;28;20457;-80
2022/05/08 06:38:14;;;;;;;8.43;5.60;;;17.20;63.00;;;;;;5071349;28;20480;-77
2022/05/08 06:40:43;;;;;;;8.60;5.87;;;17.00;63.40;;;;;;5069377;28;20572;-79
2022/05/08 06:43:13;;;;;;;9.50;5.60;;;16.80;64.10;;;;;;5069576;28;20458;-79
2022/05/08 06:45:41;;;;;;;9.77;6.40;;;16.70;64.40;;;;;;5068855;28;20481;-80
2022/05/08 06:48:09;;;;;;;9.70;6.17;;;16.60;64.90;;;;;;5069219;28;20458;-79
2022/05/08 06:50:37;;;;;;;8.57;5.07;;;16.50;65.70;;;;;;5068964;28;21236;-78
2022/05/08 06:53:06;;;;;;;8.03;5.30;;;16.40;66.20;;;;;;5071500;28;20466;-78
2022/05/08 06:55:34;;;;;;;9.73;5.90;;;16.40;66.20;;;;;;5067750;28;20523;-77
2022/05/08 06:58:02;;;;;;;9.37;6.00;;;16.40;67.00;;;;;;5060786;28;20557;-76
2022/05/08 07:03:20;;;;;;;9.00;6.33;;;16.40;67.50;;;;;;5063004;28;21069;-76
2022/05/08 07:05:49;;;;;;;9.50;5.90;;;16.40;67.80;;;;;;5069475;28;20495;-76
2022/05/08 07:08:17;;;;;;;9.83;5.93;;;16.40;67.90;;;;;;5068888;28;20558;-76
2022/05/08 07:10:45;;;;;;;8.77;5.93;;;16.40;68.40;;;;;;5069633;28;20473;-77
2022/05/08 07:13:15;;;;;;;9.03;6.07;;;16.50;68.90;;;;;;5058997;28;20500;-76
2022/05/08 07:15:44;;;;;;;10.23;6.67;;;16.50;69.90;;;;;;5066962;28;20462;-76
2022/05/08 07:18:29;;;;;;;9.30;6.17;;;16.50;69.40;;;;;;5063377;28;20458;-76
2022/05/08 07:20:58;;;;;;;11.33;6.53;;;16.50;69.30;;;;;;5069136;28;20875;-75
2022/05/08 07:23:26;;;;;;;13.63;6.00;;;16.60;69.70;;;;;;5069638;28;20965;-77
2022/05/08 07:25:54;;;;;;;9.83;6.40;;;16.70;69.60;;;;;;5068969;28;20457;-77
2022/05/08 07:28:22;;;;;;;10.07;6.57;;;16.70;69.60;;;;;;5068511;28;20464;-77
2022/05/08 07:30:54;;;;;;;10.03;6.93;;;16.80;70.60;;;;;;5061928;28;20474;-77
2022/05/08 07:33:22;;;;;;;10.33;7.17;;;16.90;70.20;;;;;;5062127;28;20462;-76
2022/05/08 07:38:36;;;;;;;10.40;6.90;;;17.00;70.20;;;;;;5068161;28;20472;-74
2022/05/08 07:41:04;;;;;;;10.00;6.63;;;17.10;70.30;;;;;;5068292;28;20902;-76
2022/05/08 07:43:32;;;;;;;10.67;6.83;;;17.10;70.60;;;;;;5068910;28;20450;-75
2022/05/08 07:46:01;;;;;;;10.00;6.73;;;17.20;70.60;;;;;;5068470;28;20492;-74
2022/05/08 07:48:29;;;;;;;9.83;6.40;;;17.20;70.40;;;;;;5060753;28;20553;-76
2022/05/08 07:50:59;;;;;;;16.50;7.20;;;17.20;70.50;;;;;;5064696;28;20481;-75
2022/05/08 07:53:28;;;;;;;9.57;6.90;;;17.30;70.50;;;;;;5066205;28;20469;-76
2022/05/08 07:55:57;;;;;;;9.03;6.40;;;17.40;70.60;;;;;;5067898;28;20819;-76
2022/05/08 07:58:27;;;;;;;10.77;7.00;;;17.50;70.90;;;;;;5067017;28;20499;-75
2022/05/08 08:01:02;;;;;;;9.30;5.90;;;17.60;70.70;;;;;;5067726;28;20484;-78
2022/05/08 08:03:32;;;;;;;10.07;6.67;;;17.60;70.60;;;;;;5063283;28;20955;-76
2022/05/08 08:06:01;;;;;;;10.93;6.57;;;17.70;70.60;;;;;;5065526;28;20830;-75
2022/05/08 08:08:39;;;;;;;9.10;6.03;;;17.80;70.70;;;;;;5064869;28;20533;-75
2022/05/08 08:11:08;;;;;;;9.23;5.90;;;17.90;70.70;;;;;;5064803;28;21005;-76
2022/05/08 08:13:37;;;;;;;9.30;6.90;;;18.00;70.60;;;;;;5067449;28;20461;-76
2022/05/08 08:16:09;;;;;;;10.67;6.00;;;18.00;70.60;;;;;;5066328;28;20482;-75
2022/05/08 08:18:41;;;;;;;8.80;6.37;;;18.10;70.60;;;;;;5064895;28;20469;-76
2022/05/08 08:21:17;;;;;;;10.40;6.57;;;18.20;70.60;;;;;;5063495;28;20504;-75
2022/05/08 08:23:45;;;;;;;10.90;8.50;;;18.20;70.40;;;;;;5065040;28;20476;-75
2022/05/08 08:26:14;;;;;;;8.70;6.40;;;18.20;70.20;;;;;;5067081;28;20819;-75
2022/05/08 08:28:42;;;;;;;9.47;7.37;;;18.20;70.40;;;;;;5063014;28;20446;-75
2022/05/08 08:31:12;;;;;;;10.93;7.77;;;18.30;70.20;;;;;;5065765;28;20478;-75
2022/05/08 08:33:41;;;;;;;10.33;7.43;;;18.30;70.10;;;;;;5067093;28;20472;-76
2022/05/08 08:36:10;;;;;;;11.27;7.00;;;18.40;70.20;;;;;;5064484;28;20460;-75
2022/05/08 08:38:38;;;;;;;10.80;7.10;;;18.40;70.20;;;;;;5065922;28;20463;-75
2022/05/08 08:41:08;;;;;;;10.20;6.57;;;18.50;70.10;;;;;;5067003;28;20489;-75
2022/05/08 08:49:14;;;;;;;9.07;5.63;;;18.60;70.10;;;;;;5064390;28;20552;-73
2022/05/08 08:51:44;;;;;;;10.53;6.33;;;18.60;70.00;;;;;;5066574;28;20867;-75
2022/05/08 08:54:12;;;;;;;7.70;5.20;;;18.70;70.10;;;;;;5065192;28;20446;-74
2022/05/08 08:56:40;;;;;;;9.33;6.50;;;18.70;70.10;;;;;;5065991;28;20438;-74
2022/05/08 08:59:10;;;;;;;8.90;6.57;;;18.80;70.10;;;;;;5061614;28;20469;-75
2022/05/08 09:01:42;;;;;;;9.17;6.20;;;18.80;69.90;;;;;;5061863;28;20488;-75
2022/05/08 09:04:11;;;;;;;10.93;7.20;;;18.90;70.00;;;;;;5065922;28;20563;-76
2022/05/08 09:06:40;;;;;;;10.13;6.97;;;18.90;70.00;;;;;;5064896;28;20478;-76
2022/05/08 09:09:28;;;;;;;9.10;6.20;;;19.00;69.80;;;;;;5064329;28;20477;-76
2022/05/08 09:11:57;;;;;;;9.27;5.90;;;19.00;69.60;;;;;;5062869;28;20462;-75
2022/05/08 09:14:30;;;;;;;9.07;6.37;;;19.10;69.90;;;;;;5064745;28;20462;-76
2022/05/08 09:16:59;;;;;;;8.97;6.30;;;19.20;69.80;;;;;;5052882;28;20483;-76
2022/05/08 09:19:34;;;;;;;8.30;5.60;;;19.30;69.70;;;;;;5063166;28;20550;-76
2022/05/08 09:22:03;;;;;;;9.27;6.30;;;19.50;69.60;;;;;;5064045;28;20497;-76
2022/05/08 09:24:33;;;;;;;7.53;5.13;;;19.50;68.90;;;;;;5062643;28;21147;-76
2022/05/08 09:27:14;;;;;;;8.90;6.67;;;19.60;69.00;;;;;;5066353;28;20470;-74
2022/05/08 09:29:42;;;;;;;12.37;5.83;;;19.70;68.50;;;;;;5062011;28;20471;-75
2022/05/08 09:32:42;;;;;;;9.50;6.37;;;19.70;67.90;;;;;;5060679;28;20489;-75
2022/05/08 09:35:10;;;;;;;10.20;5.17;;;19.80;67.20;;;;;;5071383;28;20458;-74
2022/05/08 09:37:52;;;;;;;7.60;5.07;;;19.80;67.30;;;;;;5067024;28;20454;-74
2022/05/08 09:40:22;;;;;;;9.63;5.80;;;19.90;66.70;;;;;;5062625;28;20471;-76
2022/05/08 09:42:51;;;;;;;8.10;5.70;;;19.90;66.90;;;;;;5082057;28;20533;-77
2022/05/08 09:45:19;;;;;;;9.00;5.43;;;19.90;64.80;;;;;;5064840;28;20466;-78
2022/05/08 09:47:49;;;;;;;10.70;6.23;;;20.00;66.10;;;;;;5065846;28;21000;-77
2022/05/08 09:50:18;;;;;;;9.80;5.87;;;20.00;66.30;;;;;;5066016;28;20471;-78
2022/05/08 09:52:47;;;;;;;8.70;5.87;;;20.10;66.30;;;;;;5067893;28;20841;-78
2022/05/08 09:55:19;;;;;;;9.00;6.00;;;20.20;66.30;;;;;;5071084;28;20546;-78
2022/05/08 09:57:49;;;;;;;9.67;5.07;;;20.20;66.10;;;;;;5069200;28;20455;-78
2022/05/08 10:00:17;;;;;;;7.50;5.30;;;20.30;65.90;;;;;;5070734;28;20462;-77
2022/05/08 10:02:50;;;;;;;8.50;5.40;;;20.40;66.00;;;;;;5070754;28;20462;-78
2022/05/08 10:05:19;;;;;;;8.73;5.80;;;20.40;65.60;;;;;;5070327;28;20922;-77
2022/05/08 10:07:48;;;;;;;7.63;5.50;;;20.50;65.40;;;;;;5069275;28;20497;-76
2022/05/08 10:15:49;;;;;;;7.73;4.90;;;20.50;65.40;;;;;;5081306;28;20479;-78
2022/05/08 10:18:28;;;;;;;7.93;4.37;;;20.50;64.40;;;;;;5067276;28;20475;-77
2022/05/08 10:21:05;;;;;;;7.10;4.70;;;20.50;63.60;;;;;;5065227;28;20822;-77
2022/05/08 10:23:40;;;;;;;7.73;4.77;;;20.50;63.30;;;;;;5065088;28;20465;-77
2022/05/08 10:26:16;;;;;;;9.50;4.13;;;20.60;62.40;;;;;;5059949;28;20459;-77
2022/05/08 10:29:15;;;;;;;7.50;4.60;;;20.60;62.70;;;;;;5077725;28;20456;-78
2022/05/08 10:31:45;;;;;;;5.90;3.80;;;20.70;62.40;;;;;;5016218;28;20503;-78
2022/05/08 10:34:16;;;;;;;6.47;4.27;;;20.70;62.30;;;;;;5047884;28;20472;-78
2022/05/08 10:37:17;;;;;;;9.40;4.40;;;20.80;61.80;;;;;;5068409;28;20477;-78
2022/05/08 10:39:47;;;;;;;6.63;4.40;;;20.80;61.90;;;;;;5067288;28;20500;-77
2022/05/08 10:42:45;;;;;;;7.67;4.53;;;20.90;61.60;;;;;;5068588;28;20544;-78
2022/05/08 10:45:43;;;;;;;6.90;4.00;;;20.90;60.40;;;;;;5072491;28;20969;-76
2022/05/08 10:48:17;;;;;;;6.70;4.20;;;21.00;60.50;;;;;;5068849;28;20453;-77
2022/05/08 10:50:48;;;;;;;7.10;4.90;;;21.00;60.40;;;;;;5065733;28;20489;-77
2022/05/08 10:53:25;;;;;;;8.77;3.80;;;21.10;59.90;;;;;;5059510;28;20460;-76
2022/05/08 10:55:59;;;;;;;6.17;3.80;;;21.10;59.40;;;;;;5066341;28;20461;-77
2022/05/08 10:58:27;;;;;;;7.63;4.13;;;21.10;59.40;;;;;;5064497;28;20460;-76
2022/05/08 11:00:59;;;;;;;6.23;3.60;;;21.10;58.70;;;;;;5061893;28;20487;-77
2022/05/08 11:03:28;;;;;;;6.63;4.00;;;21.20;59.30;;;;;;5064000;28;20470;-77
2022/05/08 11:05:59;;;;;;;6.83;4.13;;;21.20;59.00;;;;;;5061710;28;20472;-76
2022/05/08 11:08:29;;;;;;;6.33;3.13;;;21.20;58.60;;;;;;5067860;28;20466;-75
2022/05/08 11:10:59;;;;;;;9.13;3.60;;;21.20;58.90;;;;;;5060593;28;20489;-74
2022/05/08 11:13:38;;;;;;;6.27;3.33;;;21.20;58.20;;;;;;5064219;28;20483;-76
2022/05/08 11:16:06;;;;;;;7.10;2.80;;;21.30;57.80;;;;;;5065320;28;21011;-77
2022/05/08 11:18:35;;;;;;;4.77;2.90;;;21.40;58.20;;;;;;5067296;28;20464;-76
2022/05/08 11:21:08;;;;;;;6.10;3.60;;;21.50;58.10;;;;;;5063828;28;20486;-76
2022/05/08 11:23:40;;;;;;;6.07;3.37;;;21.50;57.70;;;;;;5064116;28;20462;-76
2022/05/08 11:26:10;;;;;;;6.80;3.20;;;21.60;57.60;;;;;;5078797;28;20679;-76
2022/05/08 11:28:49;;;;;;;6.23;3.10;;;21.70;57.30;;;;;;5077873;28;20471;-75
2022/05/08 11:31:18;;;;;;;6.07;3.53;;;21.70;57.10;;;;;;5065636;28;20481;-76
2022/05/08 11:36:37;;;;;;;6.10;3.63;;;21.80;56.50;;;;;;5080016;28;20918;-78
2022/05/08 11:39:09;;;;;;;6.20;4.03;;;21.80;56.40;;;;;;5067026;28;20466;-77
2022/05/08 11:41:39;;;;;;;7.20;3.53;;;21.80;56.50;;;;;;5067090;28;20995;-77
2022/05/08 11:44:20;;;;;;;8.93;3.70;;;21.70;56.60;;;;;;5067069;28;20460;-77
2022/05/08 11:46:49;;;;;;;5.27;3.13;;;21.70;56.70;;;;;;5064880;28;21419;-76
2022/05/08 11:49:18;;;;;;;5.23;3.30;;;21.50;57.00;;;;;;5067259;28;20481;-78
2022/05/08 11:51:49;;;;;;;8.20;4.50;;;21.50;57.20;;;;;;5063719;28;21002;-77
2022/05/08 11:54:32;;;;;;;10.70;4.30;;;21.40;57.20;;;;;;5079469;28;21209;-79
2022/05/08 12:00:31;;;;;;;6.77;4.00;;;21.40;57.10;;;;;;5070399;28;21018;-79
2022/05/08 12:03:01;;;;;;;8.90;4.10;;;21.40;57.20;;;;;;5080758;28;20470;-81
2022/05/08 12:05:30;;;;;;;10.60;4.47;;;21.40;57.70;;;;;;5076733;28;20454;-80
2022/05/08 12:08:01;;;;;;;8.30;3.90;;;21.40;57.60;;;;;;5085791;28;21024;-80
2022/05/08 12:10:37;;;;;;;6.37;3.80;;;21.50;57.70;;;;;;5083960;28;20460;-80
2022/05/08 12:13:06;;;;;;;6.70;3.53;;;21.50;57.70;;;;;;5072128;28;20453;-80
2022/05/08 12:15:34;;;;;;;7.97;4.33;;;21.60;57.20;;;;;;5081884;28;20469;-80
2022/05/08 12:18:04;;;;;;;6.33;3.83;;;21.60;57.20;;;;;;5068822;28;20491;-79
2022/05/08 12:20:39;;;;;;;4.90;3.00;;;21.60;56.70;;;;;;5068745;28;20528;-80
2022/05/08 12:23:10;;;;;;;5.23;3.40;;;21.60;57.10;;;;;;5070465;28;20543;-80
2022/05/08 12:25:41;;;;;;;7.60;4.00;;;21.70;57.10;;;;;;5062130;28;20455;-79
2022/05/08 12:28:12;;;;;;;6.80;3.60;;;21.70;56.80;;;;;;5066489;28;21240;-79
2022/05/08 12:30:41;;;;;;;6.50;3.70;;;21.70;56.70;;;;;;5068479;28;20618;-80
2022/05/08 12:33:09;;;;;;;7.00;3.33;;;21.80;57.10;;;;;;5070366;28;20566;-80
2022/05/08 12:35:37;;;;;;;6.80;3.83;;;21.90;57.10;;;;;;5069106;28;20444;-80
2022/05/08 12:38:05;;;;;;;6.97;4.33;;;22.00;57.10;;;;;;5086282;28;20461;-79
2022/05/08 12:40:35;;;;;;;5.30;3.50;;;22.00;56.80;;;;;;5064720;28;21131;-81
2022/05/08 12:43:03;;;;;;;8.90;3.57;;;22.10;56.70;;;;;;5070593;28;20492;-79
2022/05/08 12:45:37;;;;;;;6.07;3.17;;;22.10;56.70;;;;;;5073219;28;20560;-79
2022/05/08 12:48:07;;;;;;;7.13;3.33;;;22.10;56.30;;;;;;5075060;28;21711;-79
2022/05/08 12:50:35;;;;;;;5.60;3.00;;;22.10;56.40;;;;;;5076776;28;20471;-79
2022/05/08 12:53:03;;;;;;;6.03;3.37;;;22.10;56.20;;;;;;5061379;28;21024;-81
2022/05/08 12:55:32;;;;;;;4.97;3.20;;;22.00;56.30;;;;;;5065607;28;20451;-80
2022/05/08 13:00:46;;;;;;;5.60;2.87;;;21.90;55.90;;;;;;5074621;28;20565;-79
2022/05/08 13:03:16;;;;;;;5.90;3.10;;;21.90;55.80;;;;;;5077460;28;20527;-79
2022/05/08 13:05:45;;;;;;;7.97;3.27;;;21.80;55.70;;;;;;5073218;28;20549;-79
2022/05/08 13:08:14;;;;;;;5.63;2.60;;;21.90;55.90;;;;;;5071827;28;20457;-79
2022/05/08 13:10:42;;;;;;;6.17;3.17;;;21.90;55.00;;;;;;5069967;28;20487;-78
2022/05/08 13:13:11;;;;;;;6.67;3.07;;;22.00;55.50;;;;;;5069786;28;20482;-80
2022/05/08 13:15:39;;;;;;;6.53;2.97;;;22.10;55.50;;;;;;5068346;28;20827;-78
2022/05/08 13:18:08;;;;;;;6.10;3.17;;;22.20;55.30;;;;;;5069987;28;20477;-79
2022/05/08 13:20:36;;;;;;;8.03;3.67;;;22.20;54.80;;;;;;5070288;28;20493;-79
2022/05/08 13:23:07;;;;;;;6.73;3.07;;;22.30;54.70;;;;;;5066106;28;20490;-79
2022/05/08 13:25:35;;;;;;;7.20;3.10;;;22.30;54.40;;;;;;5064473;28;20469;-79
2022/05/08 13:28:04;;;;;;;5.20;2.80;;;22.40;54.70;;;;;;5064074;28;20461;-79
2022/05/08 13:30:33;;;;;;;6.33;3.23;;;22.40;55.00;;;;;;5068118;28;20465;-79
2022/05/08 13:33:04;;;;;;;6.20;3.20;;;22.50;54.80;;;;;;5068442;28;20522;-79
2022/05/08 13:35:32;;;;;;;6.60;3.13;;;22.50;54.90;;;;;;5068852;28;20451;-79
2022/05/08 13:38:00;;;;;;;6.43;3.10;;;22.50;55.10;;;;;;5069383;28;20446;-80